Time;durP1;ratioP1;P1;durP2;ratioP2;P2;SDS_P1;SDS_P2;PMS_P1;PMS_P2;Temp;Humidity;BMP_temperature;BMP_pressure;BME280_temperature;BME280_humidity;BME280_pressure;Samples;Min_cycle;Max_cycle;Signal;HPM_P1;HPM_P2
2023/04/12 00:00:10;;;;;;;9.50;4.50;;;;;;;2.56;90.41;100291.81;106455;1253;73415;-69
2023/04/12 00:02:38;;;;;;;9.30;3.70;;;;;;;2.59;90.23;100289.11;106205;1253;62026;-70
2023/04/12 00:05:08;;;;;;;8.90;4.00;;;;;;;2.61;89.93;100280.91;106156;1254;62510;-69
2023/04/12 00:07:37;;;;;;;9.00;3.70;;;;;;;2.63;89.92;100269.89;105714;1257;74820;-73
2023/04/12 00:10:06;;;;;;;7.00;3.70;;;;;;;2.64;90.33;100264.34;105923;1254;70451;-70
2023/04/12 00:12:33;;;;;;;9.20;3.70;;;;;;;2.64;89.86;100260.53;107919;1256;71299;-71
2023/04/12 00:15:00;;;;;;;8.20;3.50;;;;;;;2.65;90.15;100255.91;105651;1253;62242;-70
2023/04/12 00:17:27;;;;;;;9.00;3.70;;;;;;;2.64;90.15;100246.36;106093;1256;62087;-70
2023/04/12 00:19:53;;;;;;;11.30;4.30;;;;;;;2.65;89.91;100238.32;106282;1254;76164;-69
2023/04/12 00:22:20;;;;;;;5.70;3.50;;;;;;;2.64;90.15;100228.45;106090;1255;63146;-74
2023/04/12 00:24:46;;;;;;;7.30;3.60;;;;;;;2.63;90.47;100229.94;105764;1256;71753;-71
2023/04/12 00:27:13;;;;;;;8.20;3.70;;;;;;;2.63;90.51;100225.39;105562;1254;62582;-70
2023/04/12 00:29:39;;;;;;;8.80;3.50;;;;;;;2.64;90.90;100223.71;105719;1255;62557;-74
2023/04/12 00:32:06;;;;;;;6.90;3.30;;;;;;;2.65;91.27;100215.05;105858;1255;74103;-71
2023/04/12 00:34:33;;;;;;;5.10;3.40;;;;;;;2.69;91.30;100214.92;105680;1256;71261;-70
2023/04/12 00:37:01;;;;;;;7.50;3.40;;;;;;;2.72;91.16;100213.42;106228;1255;63806;-69
2023/04/12 00:39:28;;;;;;;8.40;3.70;;;;;;;2.75;91.11;100209.48;106263;1254;63541;-70
2023/04/12 00:41:55;;;;;;;7.00;3.60;;;;;;;2.77;90.71;100204.55;106204;1254;62024;-70
2023/04/12 00:44:23;;;;;;;9.40;3.60;;;;;;;2.81;90.78;100201.73;105651;1260;75175;-72
2023/04/12 00:46:50;;;;;;;6.40;3.60;;;;;;;2.84;90.53;100197.10;105954;1254;71063;-70
2023/04/12 00:49:17;;;;;;;5.70;3.20;;;;;;;2.88;90.60;100194.40;105867;1255;73035;-69
2023/04/12 00:51:43;;;;;;;8.20;3.50;;;;;;;2.90;90.46;100189.30;105546;1260;62109;-72
2023/04/12 00:54:12;;;;;;;6.90;3.00;;;;;;;2.93;90.67;100185.36;106497;1255;61960;-74
2023/04/12 00:56:39;;;;;;;8.10;3.20;;;;;;;2.95;90.84;100179.36;106310;1254;75900;-70
2023/04/12 00:59:07;;;;;;;6.10;3.00;;;;;;;2.98;90.78;100177.96;105776;1255;70885;-70
2023/04/12 01:01:33;;;;;;;7.10;3.20;;;;;;;2.99;90.95;100174.30;105702;1260;73150;-70
2023/04/12 01:04:03;;;;;;;7.60;3.20;;;;;;;3.02;90.83;100172.83;105614;1258;62075;-70
2023/04/12 01:06:51;;;;;;;7.70;3.30;;;;;;;3.04;90.57;100170.36;105838;1255;62633;-70
2023/04/12 01:09:50;;;;;;;6.50;3.10;;;;;;;3.08;90.37;100173.84;105867;1257;73981;-70
2023/04/12 01:12:25;;;;;;;6.70;3.30;;;;;;;3.11;89.99;100169.07;106739;1255;68951;-69
2023/04/12 01:14:54;;;;;;;6.30;3.00;;;;;;;3.12;90.05;100164.77;106069;1254;71181;-69
2023/04/12 01:17:28;;;;;;;7.30;3.20;;;;;;;3.14;89.88;100164.27;106330;1255;62086;-71
2023/04/12 01:20:08;;;;;;;7.20;3.10;;;;;;;3.15;89.55;100160.00;105783;1258;61975;-69
2023/04/12 01:22:36;;;;;;;7.30;3.00;;;;;;;3.16;89.56;100158.61;105718;1256;74681;-72
2023/04/12 01:25:34;;;;;;;7.70;2.90;;;;;;;3.17;89.14;100151.02;106000;1255;70599;-70
2023/04/12 01:28:06;;;;;;;7.60;3.30;;;;;;;3.17;89.14;100141.98;105423;1254;70691;-69
2023/04/12 01:30:33;;;;;;;6.10;3.20;;;;;;;3.18;88.84;100141.34;106359;1255;62212;-70
2023/04/12 01:33:04;;;;;;;4.60;2.80;;;;;;;3.18;89.04;100132.73;106218;1255;62063;-69
2023/04/12 01:35:31;;;;;;;6.10;3.00;;;;;;;3.17;88.77;100125.89;106266;1254;75829;-70
2023/04/12 01:38:02;;;;;;;6.10;3.10;;;;;;;3.14;88.77;100122.25;105776;1256;71923;-73
2023/04/12 01:40:30;;;;;;;6.80;3.00;;;;;;;3.13;89.09;100121.20;105734;1254;71118;-69
2023/04/12 01:43:04;;;;;;;6.00;2.90;;;;;;;3.11;88.98;100112.06;105619;1260;62070;-70
2023/04/12 01:45:30;;;;;;;8.00;2.90;;;;;;;3.09;89.38;100104.91;105830;1258;62507;-71
2023/04/12 01:47:58;;;;;;;7.10;2.70;;;;;;;3.08;89.46;100098.73;106009;1253;74353;-69
2023/04/12 01:50:34;;;;;;;8.00;2.90;;;;;;;3.07;89.61;100091.19;106021;1254;69179;-69
2023/04/12 01:53:12;;;;;;;5.10;2.50;;;;;;;3.06;89.52;100088.10;106324;1255;71931;-70
2023/04/12 01:55:44;;;;;;;5.70;2.60;;;;;;;3.06;89.67;100084.08;105889;1257;62044;-70
2023/04/12 01:58:11;;;;;;;7.60;2.90;;;;;;;3.09;89.75;100085.92;105617;1258;61952;-69
2023/04/12 02:00:41;;;;;;;5.10;2.60;;;;;;;3.11;89.57;100083.12;105861;1254;75234;-70
2023/04/12 02:03:09;;;;;;;5.30;2.20;;;;;;;3.13;89.61;100081.21;105743;1259;69959;-70
2023/04/12 02:05:36;;;;;;;7.00;3.00;;;;;;;3.14;89.75;100078.09;105865;1254;72715;-68
2023/04/12 02:08:04;;;;;;;6.40;2.60;;;;;;;3.15;90.03;100075.38;106465;1255;63663;-68
2023/04/12 02:10:31;;;;;;;5.20;2.20;;;;;;;3.15;90.02;100085.66;105665;1256;63325;-70
2023/04/12 02:13:02;;;;;;;5.90;2.60;;;;;;;3.16;90.35;100076.02;106279;1254;73940;-68
2023/04/12 02:15:30;;;;;;;6.10;2.70;;;;;;;3.18;90.07;100068.97;105773;1256;71349;-70
2023/04/12 02:17:58;;;;;;;6.90;2.50;;;;;;;3.23;89.82;100063.30;105753;1255;71860;-69
2023/04/12 02:20:25;;;;;;;7.70;2.60;;;;;;;3.26;89.61;100053.72;105604;1254;62618;-72
2023/04/12 02:22:52;;;;;;;6.20;2.70;;;;;;;3.27;89.40;100051.92;105719;1254;62678;-69
2023/04/12 02:25:20;;;;;;;6.30;2.50;;;;;;;3.26;89.10;100041.98;106200;1254;74025;-69
2023/04/12 02:27:47;;;;;;;7.30;2.40;;;;;;;3.27;89.19;100037.90;106390;1254;71175;-73
2023/04/12 02:30:14;;;;;;;6.70;2.60;;;;;;;3.26;89.37;100034.90;105861;1256;71708;-68
2023/04/12 02:32:44;;;;;;;7.00;2.50;;;;;;;3.24;89.36;100033.08;106050;1259;62051;-69
2023/04/12 02:35:12;;;;;;;7.10;2.80;;;;;;;3.24;89.27;100022.14;106029;1258;62037;-72
2023/04/12 02:37:40;;;;;;;5.30;2.60;;;;;;;3.24;89.42;100018.44;105717;1256;73198;-69
2023/04/12 02:40:09;;;;;;;6.70;2.50;;;;;;;3.24;89.17;100009.89;105904;1256;70024;-70
2023/04/12 02:42:36;;;;;;;4.20;2.40;;;;;;;3.25;89.47;100004.50;105775;1254;71146;-69
2023/04/12 02:45:03;;;;;;;8.70;2.70;;;;;;;3.26;89.11;100002.38;106657;1253;62208;-69
2023/04/12 02:47:30;;;;;;;6.00;2.50;;;;;;;3.26;89.06;99995.18;105764;1258;62415;-69
2023/04/12 02:49:57;;;;;;;7.50;2.30;;;;;;;3.27;88.98;99993.89;105793;1259;74511;-73
2023/04/12 02:52:23;;;;;;;4.90;2.20;;;;;;;3.27;88.97;99995.44;105748;1257;70918;-70
2023/04/12 02:54:51;;;;;;;6.70;2.40;;;;;;;3.29;88.98;99991.77;106905;1253;71566;-70
2023/04/12 02:57:19;;;;;;;6.50;2.30;;;;;;;3.33;88.96;99986.20;105808;1260;62073;-71
2023/04/12 02:59:47;;;;;;;5.30;2.30;;;;;;;3.35;88.64;99984.03;106249;1255;61994;-70
2023/04/12 03:02:14;;;;;;;6.60;2.30;;;;;;;3.38;88.51;99977.81;106436;1256;73276;-69
2023/04/12 03:04:45;;;;;;;5.10;2.20;;;;;;;3.42;88.62;99978.84;106370;1256;71183;-70
2023/04/12 03:07:13;;;;;;;7.60;2.30;;;;;;;3.46;88.37;99974.04;105611;1259;70928;-68
2023/04/12 03:09:41;;;;;;;4.90;2.20;;;;;;;3.49;88.15;99971.55;106728;1255;62382;-70
2023/04/12 03:12:08;;;;;;;7.20;2.20;;;;;;;3.50;88.07;99957.79;106102;1256;62048;-69
2023/04/12 03:14:34;;;;;;;4.90;2.10;;;;;;;3.52;87.88;99952.92;105971;1254;75880;-70
2023/04/12 03:17:01;;;;;;;4.70;2.20;;;;;;;3.55;87.97;99947.52;105588;1256;72409;-74
2023/04/12 03:19:31;;;;;;;6.00;2.00;;;;;;;3.60;88.06;99945.61;106482;1254;62069;-71
2023/04/12 03:21:58;;;;;;;5.30;2.10;;;;;;;3.65;87.77;99942.70;105630;1255;62624;-74
2023/04/12 03:24:25;;;;;;;5.10;2.10;;;;;;;3.70;87.45;99937.54;105879;1255;62049;-71
2023/04/12 03:26:52;;;;;;;5.70;2.40;;;;;;;3.74;87.46;99929.99;105570;1258;76117;-70
2023/04/12 03:29:18;;;;;;;6.50;2.50;;;;;;;3.77;87.21;99925.96;106608;1258;69767;-69
2023/04/12 03:31:45;;;;;;;7.20;2.20;;;;;;;3.79;86.92;99923.88;105681;1254;62976;-70
2023/04/12 03:34:12;;;;;;;6.70;2.60;;;;;;;3.80;86.85;99914.81;105915;1257;62047;-70
2023/04/12 03:36:38;;;;;;;6.10;2.50;;;;;;;3.82;86.80;99904.89;106444;1253;61995;-68
2023/04/12 03:39:05;;;;;;;5.50;2.20;;;;;;;3.83;86.76;99893.62;106494;1258;61927;-70
2023/04/12 03:41:32;;;;;;;8.20;2.40;;;;;;;3.83;86.64;99888.11;105990;1258;63341;-71
2023/04/12 03:43:59;;;;;;;6.40;2.20;;;;;;;3.81;86.65;99880.80;105666;1263;72736;-73
2023/04/12 03:46:25;;;;;;;6.50;2.20;;;;;;;3.78;87.02;99877.45;106654;1254;61947;-68
2023/04/12 03:48:52;;;;;;;6.10;2.20;;;;;;;3.75;86.73;99875.15;105885;1256;62576;-69
2023/04/12 03:51:21;;;;;;;6.20;2.00;;;;;;;3.73;87.13;99869.75;105739;1256;75380;-69
2023/04/12 03:53:47;;;;;;;8.10;2.30;;;;;;;3.71;86.99;99864.89;105575;1256;72188;-70
2023/04/12 03:56:14;;;;;;;5.20;2.10;;;;;;;3.71;87.25;99858.42;106584;1254;70625;-69
2023/04/12 03:58:41;;;;;;;5.20;2.00;;;;;;;3.72;87.04;99861.11;105802;1255;62101;-69
2023/04/12 04:01:08;;;;;;;8.60;2.40;;;;;;;3.73;87.11;99859.09;105703;1255;62083;-70
2023/04/12 04:03:34;;;;;;;5.90;2.60;;;;;;;3.73;87.22;99854.15;106311;1255;74416;-69
2023/04/12 04:06:02;;;;;;;8.00;2.60;;;;;;;3.74;87.21;99848.82;106903;1254;72104;-70
2023/04/12 04:08:29;;;;;;;4.90;2.30;;;;;;;3.76;87.16;99840.46;106498;1256;71454;-69
2023/04/12 04:10:56;;;;;;;5.60;2.20;;;;;;;3.77;86.98;99836.68;105708;1255;62082;-70
2023/04/12 04:13:22;;;;;;;6.20;2.30;;;;;;;3.79;86.60;99829.97;106855;1256;61931;-70
2023/04/12 04:15:57;;;;;;;5.00;2.20;;;;;;;3.81;86.88;99824.83;105891;1259;75739;-70
2023/04/12 04:18:24;;;;;;;7.00;2.30;;;;;;;3.83;86.67;99819.20;106126;1255;71184;-69
2023/04/12 04:20:51;;;;;;;6.00;2.60;;;;;;;3.85;86.54;99820.73;105517;1257;62081;-69
2023/04/12 04:23:17;;;;;;;5.00;2.00;;;;;;;3.89;86.47;99821.77;105741;1256;62080;-69
2023/04/12 04:25:45;;;;;;;5.00;2.10;;;;;;;3.94;86.24;99819.75;106805;1258;61881;-70
2023/04/12 04:28:11;;;;;;;4.20;2.10;;;;;;;3.95;85.70;99812.96;105518;1259;75477;-73
2023/04/12 04:30:38;;;;;;;4.10;2.10;;;;;;;3.98;85.35;99811.25;106190;1253;70553;-70
2023/04/12 04:33:05;;;;;;;4.40;2.10;;;;;;;3.99;85.07;99804.17;106383;1256;62168;-69
2023/04/12 04:35:32;;;;;;;5.20;2.00;;;;;;;4.02;85.04;99802.48;105782;1255;63412;-72
2023/04/12 04:38:02;;;;;;;6.90;2.40;;;;;;;4.05;85.26;99803.58;106680;1255;62036;-69
2023/04/12 04:40:28;;;;;;;3.60;2.20;;;;;;;4.08;85.33;99797.14;105828;1256;74162;-68
2023/04/12 04:42:55;;;;;;;3.70;2.10;;;;;;;4.09;85.35;99795.77;105835;1258;62685;-70
2023/04/12 04:45:27;;;;;;;5.20;2.20;;;;;;;4.12;84.90;99792.42;106501;1255;72458;-70
2023/04/12 04:47:54;;;;;;;7.40;2.50;;;;;;;4.12;84.57;99786.79;106044;1255;62490;-70
2023/04/12 04:50:23;;;;;;;5.50;2.40;;;;;;;4.13;84.68;99783.03;106265;1254;62144;-71
2023/04/12 04:52:50;;;;;;;4.80;1.90;;;;;;;4.14;84.54;99782.08;105728;1261;75706;-72
2023/04/12 04:55:17;;;;;;;5.70;2.50;;;;;;;4.17;84.10;99778.77;105558;1255;71962;-71
2023/04/12 04:57:44;;;;;;;3.90;2.20;;;;;;;4.20;83.66;99777.20;105602;1254;72380;-72
2023/04/12 05:00:15;;;;;;;6.80;2.30;;;;;;;4.25;83.60;99777.58;105680;1258;62019;-71
2023/04/12 05:02:42;;;;;;;3.90;2.10;;;;;;;4.29;83.27;99770.84;106507;1256;62048;-72
2023/04/12 05:05:11;;;;;;;5.60;2.10;;;;;;;4.34;83.40;99767.61;106007;1256;76081;-72
2023/04/12 05:07:38;;;;;;;5.10;2.20;;;;;;;4.36;83.19;99769.10;106495;1258;70830;-72
2023/04/12 05:10:05;;;;;;;4.50;1.90;;;;;;;4.39;82.91;99768.09;105783;1255;71737;-72
2023/04/12 05:12:32;;;;;;;5.80;2.10;;;;;;;4.45;82.77;99767.81;106153;1256;62022;-72
2023/04/12 05:14:59;;;;;;;4.50;2.10;;;;;;;4.52;82.65;99763.67;105562;1258;61989;-72
2023/04/12 05:17:29;;;;;;;5.10;2.50;;;;;;;4.59;82.59;99762.88;105754;1253;75625;-72
2023/04/12 05:19:56;;;;;;;4.80;2.20;;;;;;;4.66;82.38;99756.86;106262;1256;70126;-70
2023/04/12 05:22:23;;;;;;;5.00;2.40;;;;;;;4.75;82.32;99751.97;105533;1255;72815;-71
2023/04/12 05:24:50;;;;;;;6.70;2.40;;;;;;;4.84;82.11;99749.88;105696;1254;62033;-74
2023/04/12 05:27:17;;;;;;;7.20;2.00;;;;;;;4.96;81.55;99742.08;106608;1260;61045;-72
2023/04/12 05:29:44;;;;;;;3.90;1.90;;;;;;;5.07;80.88;99739.48;105439;1256;74414;-71
2023/04/12 05:32:11;;;;;;;4.00;1.80;;;;;;;5.19;80.42;99734.38;105613;1256;71660;-71
2023/04/12 05:34:37;;;;;;;3.60;1.70;;;;;;;5.30;80.13;99738.92;105833;1254;62058;-71
2023/04/12 05:37:04;;;;;;;5.30;1.90;;;;;;;5.41;79.52;99733.04;106519;1255;303003;-71
2023/04/12 05:39:32;;;;;;;6.00;2.00;;;;;;;5.54;79.36;99724.16;105710;1255;62139;-73
2023/04/12 05:41:58;;;;;;;5.10;1.80;;;;;;;5.65;78.98;99720.42;105479;1256;75306;-71
2023/04/12 05:44:25;;;;;;;4.20;1.80;;;;;;;5.76;78.69;99719.77;106146;1255;62481;-70
2023/04/12 05:46:51;;;;;;;4.80;1.70;;;;;;;5.87;78.41;99715.64;106507;1256;62068;-74
2023/04/12 05:49:18;;;;;;;5.30;1.80;;;;;;;5.96;78.06;99712.22;106513;1256;62176;-72
2023/04/12 05:51:45;;;;;;;5.10;1.60;;;;;;;6.04;77.36;99711.09;106299;1256;62514;-72
2023/04/12 05:54:12;;;;;;;6.60;1.70;;;;;;;6.14;76.98;99710.07;107732;1256;73930;-70
2023/04/12 05:56:39;;;;;;;4.10;1.60;;;;;;;6.23;76.22;99708.35;107013;1255;70974;-71
2023/04/12 05:59:06;;;;;;;5.70;1.70;;;;;;;6.33;75.38;99707.77;105788;1256;71142;-71
2023/04/12 06:01:33;;;;;;;5.40;1.70;;;;;;;6.44;75.11;99701.80;106716;1256;62527;-70
2023/04/12 06:04:01;;;;;;;4.90;1.50;;;;;;;6.55;74.99;99698.81;107404;1256;61930;-71
2023/04/12 06:06:29;;;;;;;4.60;1.50;;;;;;;6.65;74.20;99700.31;106390;1254;75615;-71
2023/04/12 06:08:59;;;;;;;5.00;1.80;;;;;;;6.74;73.11;99692.11;105954;1255;71146;-72
2023/04/12 06:11:26;;;;;;;5.40;1.80;;;;;;;6.82;73.09;99687.19;106518;1258;72450;-70
2023/04/12 06:13:53;;;;;;;3.20;1.20;;;;;;;6.86;72.67;99684.51;106773;1256;62438;-74
2023/04/12 06:16:20;;;;;;;6.90;1.80;;;;;;;6.91;72.25;99680.69;106141;1255;62067;-72
2023/04/12 06:18:47;;;;;;;4.70;1.40;;;;;;;6.95;72.13;99678.98;105630;1263;75502;-71
2023/04/12 06:21:14;;;;;;;3.00;1.40;;;;;;;6.98;71.63;99673.52;106673;1254;72614;-70
2023/04/12 06:23:40;;;;;;;7.00;1.70;;;;;;;7.04;71.65;99669.13;106016;1258;73310;-71
2023/04/12 06:26:08;;;;;;;4.90;2.10;;;;;;;7.12;71.66;99665.21;105818;1261;62064;-71
2023/04/12 06:28:35;;;;;;;5.00;1.60;;;;;;;7.22;71.63;99663.52;106526;1255;62039;-70
2023/04/12 06:31:01;;;;;;;5.00;1.60;;;;;;;7.36;71.28;99662.26;106824;1259;75516;-71
2023/04/12 06:33:29;;;;;;;4.80;1.70;;;;;;;7.50;70.98;99666.11;106061;1256;71220;-71
2023/04/12 06:35:55;;;;;;;4.20;1.90;;;;;;;7.60;70.37;99667.73;105727;1256;72214;-72
2023/04/12 06:38:22;;;;;;;4.60;1.60;;;;;;;7.73;70.12;99662.23;106528;1255;62144;-72
2023/04/12 06:40:49;;;;;;;3.90;1.60;;;;;;;7.85;69.40;99652.67;105948;1259;62047;-70
2023/04/12 06:43:19;;;;;;;5.00;1.50;;;;;;;7.99;69.42;99642.38;106824;1254;75323;-71
2023/04/12 06:45:45;;;;;;;3.80;1.40;;;;;;;8.15;69.08;99639.57;108320;1255;70198;-70
2023/04/12 06:48:12;;;;;;;5.00;1.40;;;;;;;8.37;69.48;99631.21;106454;1256;72635;-70
2023/04/12 06:50:39;;;;;;;5.20;1.40;;;;;;;8.59;68.88;99624.52;107007;1256;62193;-72
2023/04/12 06:53:06;;;;;;;4.20;1.50;;;;;;;8.79;67.89;99614.98;108207;1255;59865;-71
2023/04/12 06:55:34;;;;;;;3.60;1.40;;;;;;;8.98;67.14;99609.84;106313;1256;75171;-71
2023/04/12 06:58:01;;;;;;;4.70;1.50;;;;;;;9.17;66.03;99609.79;106175;1253;70052;-72
2023/04/12 07:00:28;;;;;;;5.50;1.30;;;;;;;9.33;65.44;99604.98;106524;1261;62943;-72
2023/04/12 07:02:54;;;;;;;3.50;1.20;;;;;;;9.48;65.01;99595.45;105775;1256;62414;-72
2023/04/12 07:05:21;;;;;;;3.70;1.20;;;;;;;9.61;64.58;99595.54;106240;1257;62058;-72
2023/04/12 07:07:48;;;;;;;4.70;1.60;;;;;;;9.74;64.66;99591.12;106541;1254;75679;-73
2023/04/12 07:10:15;;;;;;;5.10;1.40;;;;;;;9.84;64.45;99588.96;105678;1256;70880;-73
2023/04/12 07:12:42;;;;;;;4.80;1.50;;;;;;;9.97;64.14;99589.17;105678;1254;74467;-71
2023/04/12 07:15:09;;;;;;;5.40;1.20;;;;;;;10.06;63.45;99585.75;106248;1261;62064;-72
2023/04/12 07:17:36;;;;;;;3.80;1.10;;;;;;;10.11;63.35;99582.54;106662;1254;61958;-71
2023/04/12 07:20:03;;;;;;;6.10;1.40;;;;;;;10.12;63.58;99575.77;105913;1258;75554;-72
2023/04/12 07:22:30;;;;;;;4.30;1.20;;;;;;;10.16;63.99;99572.20;105977;1255;69723;-72
2023/04/12 07:24:56;;;;;;;3.60;1.20;;;;;;;10.16;63.86;99560.55;105575;1261;72795;-71
2023/04/12 07:27:23;;;;;;;5.50;1.40;;;;;;;10.18;63.91;99556.92;106647;1258;62125;-71
2023/04/12 07:29:53;;;;;;;4.20;1.10;;;;;;;10.19;64.21;99558.06;105751;1255;62520;-71
2023/04/12 07:32:20;;;;;;;4.50;1.20;;;;;;;10.21;64.27;99556.20;105595;1260;73977;-72
2023/04/12 07:34:47;;;;;;;3.10;1.30;;;;;;;10.24;64.01;99554.24;108035;1256;68966;-72
2023/04/12 07:37:13;;;;;;;3.70;1.20;;;;;;;10.33;63.93;99544.13;107622;1254;71151;-72
2023/04/12 07:39:40;;;;;;;3.70;1.20;;;;;;;10.40;63.76;99540.14;106907;1255;62326;-72
2023/04/12 07:42:07;;;;;;;6.20;1.60;;;;;;;10.53;63.61;99537.35;105843;1254;62245;-72
2023/04/12 07:44:33;;;;;;;3.40;1.30;;;;;;;10.70;63.46;99537.80;107798;1255;62057;-72
2023/04/12 07:47:04;;;;;;;3.10;1.10;;;;;;;10.87;62.64;99537.22;105704;1260;70061;-71
2023/04/12 07:49:30;;;;;;;7.50;1.90;;;;;;;11.06;62.25;99528.14;106049;1255;72330;-73
2023/04/12 07:51:57;;;;;;;5.50;1.20;;;;;;;11.17;61.32;99517.34;105999;1258;62080;-73
2023/04/12 07:54:27;;;;;;;3.90;1.20;;;;;;;11.35;61.18;99512.48;106331;1258;62218;-73
2023/04/12 07:56:59;;;;;;;4.00;1.40;;;;;;;11.54;60.92;99506.48;105989;1255;74121;-73
2023/04/12 07:59:26;;;;;;;3.80;1.20;;;;;;;11.74;60.61;99500.22;105695;1254;71924;-72
2023/04/12 08:01:52;;;;;;;2.90;1.10;;;;;;;11.94;60.21;99493.73;106442;1254;71856;-72
2023/04/12 08:04:20;;;;;;;3.30;1.20;;;;;;;12.14;58.94;99487.61;105733;1256;62119;-74
2023/04/12 08:06:47;;;;;;;4.20;1.50;;;;;;;12.34;58.55;99484.69;106706;1254;61928;-72
2023/04/12 08:09:14;;;;;;;3.90;1.00;;;;;;;12.41;57.94;99478.04;107878;1254;74168;-75
2023/04/12 08:11:41;;;;;;;3.10;1.20;;;;;;;12.45;58.00;99471.54;106419;1255;69170;-74
2023/04/12 08:14:09;;;;;;;3.30;1.20;;;;;;;12.44;57.82;99464.31;107976;1255;72145;-73
2023/04/12 08:16:35;;;;;;;5.00;1.60;;;;;;;12.37;57.82;99459.52;107680;1255;62039;-72
2023/04/12 08:19:02;;;;;;;3.50;1.20;;;;;;;12.31;58.37;99456.52;106690;1254;62081;-72
2023/04/12 08:21:29;;;;;;;4.50;1.10;;;;;;;12.22;58.46;99448.28;106918;1256;74350;-71
2023/04/12 08:23:56;;;;;;;3.30;1.10;;;;;;;12.13;58.24;99446.48;105886;1255;70383;-72
2023/04/12 08:26:25;;;;;;;4.00;1.40;;;;;;;12.10;58.81;99446.70;105693;1255;72742;-72
2023/04/12 08:28:52;;;;;;;4.20;1.30;;;;;;;12.07;58.47;99447.50;105913;1258;62084;-71
2023/04/12 08:31:18;;;;;;;3.90;1.40;;;;;;;12.12;58.83;99443.60;105839;1256;62128;-74
2023/04/12 08:33:45;;;;;;;3.60;1.10;;;;;;;12.09;58.99;99439.46;106139;1254;75526;-75
2023/04/12 08:36:11;;;;;;;5.50;1.70;;;;;;;12.04;58.82;99444.73;105508;1255;62537;-73
2023/04/12 08:38:38;;;;;;;2.50;1.10;;;;;;;11.96;59.26;99445.65;106164;1258;72590;-72
2023/04/12 08:41:12;;;;;;;4.30;1.20;;;;;;;11.89;59.95;99442.41;105797;1259;62122;-73
2023/04/12 08:43:44;;;;;;;4.80;1.30;;;;;;;11.87;60.19;99443.52;105911;1256;62084;-73
2023/04/12 08:46:14;;;;;;;3.80;1.20;;;;;;;11.85;60.53;99438.77;105751;1261;74329;-74
2023/04/12 08:48:46;;;;;;;3.60;1.10;;;;;;;11.78;61.02;99437.67;106043;1258;69668;-73
2023/04/12 08:51:18;;;;;;;2.50;1.20;;;;;;;11.67;59.80;99437.29;106147;1254;70543;-72
2023/04/12 08:53:44;;;;;;;3.30;1.10;;;;;;;11.47;59.75;99427.13;105805;1255;62106;-73
2023/04/12 08:56:12;;;;;;;3.40;1.00;;;;;;;11.29;61.09;99426.60;106152;1258;61969;-72
2023/04/12 08:58:44;;;;;;;4.50;1.30;;;;;;;11.15;62.40;99426.86;106409;1258;75524;-72
2023/04/12 09:01:13;;;;;;;4.00;1.30;;;;;;;11.07;64.11;99421.34;105714;1261;69671;-72
2023/04/12 09:03:43;;;;;;;5.70;1.40;;;;;;;10.88;64.90;99420.13;106273;1254;70192;-71
2023/04/12 09:06:11;;;;;;;4.90;1.60;;;;;;;10.81;65.47;99416.71;106113;1256;62164;-73
2023/04/12 09:08:54;;;;;;;5.20;1.30;;;;;;;10.71;66.24;99412.90;105951;1255;62181;-73
2023/04/12 09:11:23;;;;;;;3.60;1.10;;;;;;;10.59;67.24;99407.94;105795;1258;75737;-73
2023/04/12 09:13:51;;;;;;;3.00;1.20;;;;;;;10.40;68.25;99406.53;105638;1255;71351;-73
2023/04/12 09:16:32;;;;;;;3.90;1.30;;;;;;;10.28;69.48;99406.20;105918;1255;72711;-71
2023/04/12 09:19:01;;;;;;;5.70;1.50;;;;;;;10.09;70.94;99393.19;105757;1257;62183;-72
2023/04/12 09:21:29;;;;;;;4.70;1.40;;;;;;;9.93;70.83;99390.32;105862;1268;61920;-73
2023/04/12 09:24:10;;;;;;;4.50;1.40;;;;;;;9.79;72.05;99389.86;105556;1257;73306;-75
2023/04/12 09:26:40;;;;;;;3.40;1.30;;;;;;;9.66;72.89;99387.30;105821;1260;68959;-72
2023/04/12 09:29:23;;;;;;;4.90;1.60;;;;;;;9.59;73.28;99379.10;105574;1254;71519;-72
2023/04/12 09:32:08;;;;;;;2.50;1.40;;;;;;;9.52;74.21;99375.95;105754;1255;62085;-73
2023/04/12 09:34:35;;;;;;;3.60;1.70;;;;;;;9.46;74.68;99371.10;106334;1258;61954;-75
2023/04/12 09:37:13;;;;;;;4.80;1.30;;;;;;;9.46;75.47;99372.73;105519;1261;74372;-72
2023/04/12 09:39:41;;;;;;;4.90;1.70;;;;;;;9.43;76.33;99370.52;105914;1255;71331;-73
2023/04/12 09:42:10;;;;;;;3.70;1.50;;;;;;;9.36;77.45;99367.05;105925;1256;70310;-73
2023/04/12 09:44:57;;;;;;;3.80;1.50;;;;;;;9.32;77.38;99359.58;109027;1254;59930;-72
2023/04/12 09:47:38;;;;;;;2.60;1.40;;;;;;;9.31;77.54;99359.91;108360;1254;61959;-72
2023/04/12 09:50:07;;;;;;;6.20;1.70;;;;;;;9.29;77.79;99352.45;108406;1256;73158;-73
2023/04/12 09:52:38;;;;;;;4.40;1.50;;;;;;;9.32;77.65;99355.77;108643;1259;70990;-72
2023/04/12 09:55:09;;;;;;;3.20;1.40;;;;;;;9.36;78.43;99352.06;106291;1257;71441;-72
2023/04/12 09:57:40;;;;;;;2.80;1.10;;;;;;;9.38;78.87;99346.13;106451;1256;62611;-72
2023/04/12 10:00:16;;;;;;;3.00;1.40;;;;;;;9.42;78.96;99344.58;106925;1258;62334;-71
2023/04/12 10:02:45;;;;;;;3.50;1.60;;;;;;;9.46;79.12;99339.38;106516;1258;74476;-76
2023/04/12 10:05:15;;;;;;;4.50;1.50;;;;;;;9.52;79.43;99336.45;106207;1255;69607;-72
2023/04/12 10:07:44;;;;;;;4.70;1.50;;;;;;;9.52;78.74;99325.63;105987;1254;72526;-72
2023/04/12 10:10:12;;;;;;;3.60;1.30;;;;;;;9.53;79.51;99324.31;106809;1257;62013;-72
2023/04/12 10:12:41;;;;;;;3.90;1.30;;;;;;;9.50;80.54;99316.86;106345;1257;62033;-72
2023/04/12 10:15:12;;;;;;;3.70;1.60;;;;;;;9.49;81.02;99313.19;106556;1258;75784;-71
2023/04/12 10:17:44;;;;;;;3.00;1.40;;;;;;;9.48;80.65;99311.64;106214;1259;70228;-71
2023/04/12 10:20:15;;;;;;;3.60;1.30;;;;;;;9.48;81.10;99309.41;107075;1258;73037;-72
2023/04/12 10:22:48;;;;;;;2.90;1.30;;;;;;;9.48;81.20;99306.06;106511;1259;62811;-72
2023/04/12 10:25:22;;;;;;;3.20;1.30;;;;;;;9.48;81.46;99299.86;105980;1254;62156;-71
2023/04/12 10:27:49;;;;;;;5.10;1.60;;;;;;;9.44;80.99;99300.40;106153;1257;75689;-72
2023/04/12 10:30:21;;;;;;;3.00;1.40;;;;;;;9.45;81.24;99301.30;106103;1260;72585;-71
2023/04/12 10:33:08;;;;;;;3.10;1.40;;;;;;;9.42;81.36;99297.55;105729;1261;72401;-72
2023/04/12 10:35:47;;;;;;;3.90;1.60;;;;;;;9.42;80.81;99291.20;106335;1254;63971;-72
2023/04/12 10:38:15;;;;;;;2.60;1.40;;;;;;;9.40;81.38;99283.06;106440;1260;62134;-71
2023/04/12 10:41:12;;;;;;;3.90;1.30;;;;;;;9.43;81.52;99281.14;106223;1256;74057;-73
2023/04/12 10:43:43;;;;;;;1.80;1.10;;;;;;;9.52;81.92;99280.66;106453;1257;71575;-72
2023/04/12 10:46:45;;;;;;;3.80;1.20;;;;;;;9.56;81.48;99275.30;106226;1260;70712;-74
2023/04/12 10:49:13;;;;;;;3.70;1.40;;;;;;;9.66;81.01;99272.23;105811;1255;62733;-74
2023/04/12 10:52:00;;;;;;;3.60;1.60;;;;;;;9.80;81.13;99267.21;105775;1260;62095;-73
2023/04/12 10:54:34;;;;;;;5.20;1.50;;;;;;;9.93;81.44;99264.02;106584;1260;75523;-72
2023/04/12 10:57:02;;;;;;;3.80;1.50;;;;;;;10.01;81.17;99262.88;105950;1260;72032;-75
2023/04/12 10:59:58;;;;;;;3.50;1.40;;;;;;;10.08;81.46;99259.52;106804;1254;72933;-72
2023/04/12 11:02:25;;;;;;;2.80;1.40;;;;;;;10.18;81.97;99252.04;105807;1259;62231;-73
2023/04/12 11:05:08;;;;;;;3.80;1.40;;;;;;;10.23;81.52;99250.15;108688;1254;60319;-71
2023/04/12 11:07:43;;;;;;;3.60;1.40;;;;;;;10.25;81.45;99246.23;105985;1257;74307;-72
2023/04/12 11:10:18;;;;;;;4.00;1.50;;;;;;;10.26;81.32;99250.11;106140;1260;68789;-71
2023/04/12 11:12:51;;;;;;;3.20;1.50;;;;;;;10.30;81.92;99248.07;106585;1257;71916;-74
2023/04/12 11:15:18;;;;;;;3.00;1.40;;;;;;;10.31;82.34;99248.67;106620;1256;63231;-74
2023/04/12 11:17:56;;;;;;;4.10;1.40;;;;;;;10.33;82.15;99250.61;105811;1254;62539;-74
2023/04/12 11:20:26;;;;;;;3.70;1.30;;;;;;;10.30;81.95;99248.41;106660;1257;75297;-73
2023/04/12 11:22:53;;;;;;;3.20;1.30;;;;;;;10.23;81.92;99249.37;106190;1258;69728;-71
2023/04/12 11:25:20;;;;;;;3.60;1.40;;;;;;;10.16;82.09;99244.70;106360;1260;72494;-74
2023/04/12 11:27:52;;;;;;;2.60;1.30;;;;;;;10.07;82.76;99241.30;108617;1254;60901;-72
2023/04/12 11:30:19;;;;;;;3.80;1.60;;;;;;;10.05;83.20;99236.54;108612;1255;59944;-72
2023/04/12 11:32:46;;;;;;;5.20;1.40;;;;;;;10.02;83.91;99232.84;106863;1257;73958;-72
2023/04/12 11:35:19;;;;;;;2.50;1.40;;;;;;;10.03;84.06;99223.22;106392;1254;69618;-75
2023/04/12 11:37:46;;;;;;;4.90;1.80;;;;;;;9.98;84.49;99221.08;105649;1260;71735;-73